sensor_id;sensor_type;location;lat;lon;timestamp;pressure;altitude;pressure_sealevel;temperature;humidity
4586;BME280;2305;50.118;8.952;2023-05-10T00:01:29;99727.13;;;16.32;100.00
4586;BME280;2305;50.118;8.952;2023-05-10T00:04:02;99720.97;;;16.09;100.00
4586;BME280;2305;50.118;8.952;2023-05-10T00:06:33;99742.13;;;16.03;100.00
4586;BME280;2305;50.118;8.952;2023-05-10T00:09:03;99736.13;;;16.01;100.00
4586;BME280;2305;50.118;8.952;2023-05-10T00:11:34;99735.16;;;15.94;100.00
4586;BME280;2305;50.118;8.952;2023-05-10T00:14:03;99744.66;;;15.88;100.00
4586;BME280;2305;50.118;8.952;2023-05-10T00:16:33;99753.84;;;15.78;100.00
4586;BME280;2305;50.118;8.952;2023-05-10T00:19:01;99749.56;;;15.69;100.00
4586;BME280;2305;50.118;8.952;2023-05-10T00:21:30;99758.13;;;15.79;100.00
4586;BME280;2305;50.118;8.952;2023-05-10T00:24:05;99763.16;;;15.74;100.00
4586;BME280;2305;50.118;8.952;2023-05-10T00:26:35;99757.66;;;15.75;100.00
4586;BME280;2305;50.118;8.952;2023-05-10T00:29:04;99764.97;;;15.73;100.00
4586;BME280;2305;50.118;8.952;2023-05-10T00:31:36;99768.78;;;15.79;100.00
4586;BME280;2305;50.118;8.952;2023-05-10T00:34:05;99770.28;;;15.73;100.00
4586;BME280;2305;50.118;8.952;2023-05-10T00:36:35;99775.63;;;15.65;100.00
4586;BME280;2305;50.118;8.952;2023-05-10T00:39:13;99779.78;;;15.68;100.00
4586;BME280;2305;50.118;8.952;2023-05-10T00:41:41;99789.88;;;15.72;100.00
4586;BME280;2305;50.118;8.952;2023-05-10T00:44:13;99778.41;;;15.72;100.00
4586;BME280;2305;50.118;8.952;2023-05-10T00:46:48;99780.47;;;15.54;100.00
4586;BME280;2305;50.118;8.952;2023-05-10T00:49:20;99787.09;;;15.58;100.00
4586;BME280;2305;50.118;8.952;2023-05-10T00:51:53;99790.44;;;15.60;100.00
4586;BME280;2305;50.118;8.952;2023-05-10T00:54:27;99798.72;;;15.57;100.00
4586;BME280;2305;50.118;8.952;2023-05-10T00:56:56;99796.22;;;15.55;100.00
4586;BME280;2305;50.118;8.952;2023-05-10T00:59:27;99790.59;;;15.58;100.00
4586;BME280;2305;50.118;8.952;2023-05-10T01:02:06;99795.25;;;15.56;100.00
4586;BME280;2305;50.118;8.952;2023-05-10T01:04:39;99795.72;;;15.52;100.00
4586;BME280;2305;50.118;8.952;2023-05-10T01:07:09;99808.19;;;15.51;100.00
4586;BME280;2305;50.118;8.952;2023-05-10T01:09:40;99799.91;;;15.46;100.00
4586;BME280;2305;50.118;8.952;2023-05-10T01:12:08;99807.22;;;15.36;100.00
4586;BME280;2305;50.118;8.952;2023-05-10T01:14:40;99802.44;;;15.32;100.00
4586;BME280;2305;50.118;8.952;2023-05-10T01:17:10;99799.06;;;15.30;100.00
4586;BME280;2305;50.118;8.952;2023-05-10T01:19:43;99804.38;;;15.38;100.00
4586;BME280;2305;50.118;8.952;2023-05-10T01:22:31;99800.56;;;15.24;100.00
4586;BME280;2305;50.118;8.952;2023-05-10T01:25:24;99810.38;;;15.24;100.00
4586;BME280;2305;50.118;8.952;2023-05-10T01:28:17;99817.50;;;15.15;100.00
4586;BME280;2305;50.118;8.952;2023-05-10T01:31:12;99819.50;;;15.13;100.00
4586;BME280;2305;50.118;8.952;2023-05-10T01:33:52;99810.84;;;15.19;100.00
4586;BME280;2305;50.118;8.952;2023-05-10T01:36:27;99817.00;;;15.12;100.00
4586;BME280;2305;50.118;8.952;2023-05-10T01:39:02;99815.69;;;15.24;100.00
4586;BME280;2305;50.118;8.952;2023-05-10T01:41:39;99830.75;;;15.07;100.00
4586;BME280;2305;50.118;8.952;2023-05-10T01:44:17;99824.47;;;15.00;100.00
4586;BME280;2305;50.118;8.952;2023-05-10T01:46:49;99828.13;;;14.99;100.00
4586;BME280;2305;50.118;8.952;2023-05-10T01:49:26;99826.63;;;14.97;100.00
4586;BME280;2305;50.118;8.952;2023-05-10T01:52:00;99837.03;;;14.98;100.00
4586;BME280;2305;50.118;8.952;2023-05-10T01:54:35;99833.06;;;14.94;100.00
4586;BME280;2305;50.118;8.952;2023-05-10T01:57:09;99835.38;;;14.97;100.00
4586;BME280;2305;50.118;8.952;2023-05-10T01:59:43;99841.69;;;14.88;100.00
4586;BME280;2305;50.118;8.952;2023-05-10T02:02:13;99849.31;;;14.91;100.00
4586;BME280;2305;50.118;8.952;2023-05-10T02:04:46;99856.28;;;14.92;100.00
4586;BME280;2305;50.118;8.952;2023-05-10T02:07:16;99852.78;;;14.92;100.00
4586;BME280;2305;50.118;8.952;2023-05-10T02:09:49;99850.31;;;14.98;100.00
4586;BME280;2305;50.118;8.952;2023-05-10T02:12:18;99849.34;;;14.99;100.00
4586;BME280;2305;50.118;8.952;2023-05-10T02:14:52;99853.31;;;15.11;100.00
4586;BME280;2305;50.118;8.952;2023-05-10T02:17:25;99855.44;;;15.00;100.00
4586;BME280;2305;50.118;8.952;2023-05-10T02:19:58;99847.34;;;14.93;100.00
4586;BME280;2305;50.118;8.952;2023-05-10T02:22:31;99859.75;;;14.93;100.00
4586;BME280;2305;50.118;8.952;2023-05-10T02:25:00;99867.56;;;15.02;100.00
4586;BME280;2305;50.118;8.952;2023-05-10T02:27:30;99860.25;;;14.88;100.00
4586;BME280;2305;50.118;8.952;2023-05-10T02:29:59;99868.06;;;14.90;100.00
4586;BME280;2305;50.118;8.952;2023-05-10T02:32:27;99861.91;;;14.81;100.00
4586;BME280;2305;50.118;8.952;2023-05-10T02:35:01;99865.53;;;14.72;100.00
4586;BME280;2305;50.118;8.952;2023-05-10T02:37:31;99874.63;;;14.70;100.00
4586;BME280;2305;50.118;8.952;2023-05-10T02:39:59;99868.69;;;14.76;100.00
4586;BME280;2305;50.118;8.952;2023-05-10T02:42:32;99869.84;;;14.73;100.00
4586;BME280;2305;50.118;8.952;2023-05-10T02:45:07;99867.97;;;14.66;100.00
4586;BME280;2305;50.118;8.952;2023-05-10T02:47:36;99873.66;;;14.71;100.00
4586;BME280;2305;50.118;8.952;2023-05-10T02:50:07;99871.00;;;14.79;100.00
4586;BME280;2305;50.118;8.952;2023-05-10T02:52:39;99867.72;;;14.85;100.00
4586;BME280;2305;50.118;8.952;2023-05-10T02:55:09;99869.00;;;14.81;100.00
4586;BME280;2305;50.118;8.952;2023-05-10T02:57:43;99869.19;;;14.79;100.00
4586;BME280;2305;50.118;8.952;2023-05-10T03:00:12;99873.50;;;14.80;100.00
4586;BME280;2305;50.118;8.952;2023-05-10T03:02:42;99866.19;;;14.74;100.00
4586;BME280;2305;50.118;8.952;2023-05-10T03:05:12;99874.63;;;14.70;100.00
4586;BME280;2305;50.118;8.952;2023-05-10T03:07:43;99883.06;;;14.57;100.00
4586;BME280;2305;50.118;8.952;2023-05-10T03:10:13;99883.91;;;14.66;100.00
4586;BME280;2305;50.118;8.952;2023-05-10T03:13:05;99883.75;;;14.67;100.00
4586;BME280;2305;50.118;8.952;2023-05-10T03:15:42;99879.28;;;14.68;100.00
4586;BME280;2305;50.118;8.952;2023-05-10T03:18:19;99881.59;;;14.63;100.00
4586;BME280;2305;50.118;8.952;2023-05-10T03:20:57;99892.19;;;14.63;100.00
4586;BME280;2305;50.118;8.952;2023-05-10T03:23:32;99892.16;;;14.55;100.00
4586;BME280;2305;50.118;8.952;2023-05-10T03:26:04;99891.31;;;14.54;100.00
4586;BME280;2305;50.118;8.952;2023-05-10T03:28:35;99898.34;;;14.63;100.00
4586;BME280;2305;50.118;8.952;2023-05-10T03:31:05;99902.28;;;14.59;100.00
4586;BME280;2305;50.118;8.952;2023-05-10T03:33:34;99895.19;;;14.60;100.00
4586;BME280;2305;50.118;8.952;2023-05-10T03:36:05;99900.13;;;14.55;100.00
4586;BME280;2305;50.118;8.952;2023-05-10T03:38:33;99888.84;;;14.53;100.00
4586;BME280;2305;50.118;8.952;2023-05-10T03:41:01;99902.78;;;14.55;100.00
4586;BME280;2305;50.118;8.952;2023-05-10T03:43:30;99904.44;;;14.64;100.00
4586;BME280;2305;50.118;8.952;2023-05-10T03:45:58;99899.81;;;14.66;100.00
4586;BME280;2305;50.118;8.952;2023-05-10T03:48:27;99906.44;;;14.62;100.00
4586;BME280;2305;50.118;8.952;2023-05-10T03:50:55;99907.59;;;14.59;100.00
4586;BME280;2305;50.118;8.952;2023-05-10T03:53:27;99911.59;;;14.63;100.00
4586;BME280;2305;50.118;8.952;2023-05-10T03:55:56;99917.84;;;14.62;100.00
4586;BME280;2305;50.118;8.952;2023-05-10T03:58:25;99926.66;;;14.63;100.00
4586;BME280;2305;50.118;8.952;2023-05-10T04:00:54;99920.06;;;14.67;100.00
4586;BME280;2305;50.118;8.952;2023-05-10T04:03:24;99922.50;;;14.60;100.00
4586;BME280;2305;50.118;8.952;2023-05-10T04:05:58;99915.19;;;14.54;100.00
4586;BME280;2305;50.118;8.952;2023-05-10T04:08:33;99915.69;;;14.58;100.00
4586;BME280;2305;50.118;8.952;2023-05-10T04:11:05;99918.84;;;14.61;100.00
4586;BME280;2305;50.118;8.952;2023-05-10T04:13:34;99910.59;;;14.64;100.00
4586;BME280;2305;50.118;8.952;2023-05-10T04:16:04;99915.06;;;14.72;100.00
4586;BME280;2305;50.118;8.952;2023-05-10T04:18:33;99915.44;;;14.77;100.00
4586;BME280;2305;50.118;8.952;2023-05-10T04:21:01;99911.28;;;14.82;100.00
4586;BME280;2305;50.118;8.952;2023-05-10T04:23:29;99912.47;;;14.88;100.00
4586;BME280;2305;50.118;8.952;2023-05-10T04:26:02;99909.31;;;14.84;100.00
4586;BME280;2305;50.118;8.952;2023-05-10T04:28:32;99912.16;;;14.91;100.00
4586;BME280;2305;50.118;8.952;2023-05-10T04:31:03;99918.28;;;14.91;100.00
4586;BME280;2305;50.118;8.952;2023-05-10T04:33:32;99918.13;;;14.93;100.00
4586;BME280;2305;50.118;8.952;2023-05-10T04:36:01;99925.09;;;14.94;100.00
4586;BME280;2305;50.118;8.952;2023-05-10T04:38:29;99920.78;;;15.01;100.00
4586;BME280;2305;50.118;8.952;2023-05-10T04:41:05;99920.63;;;14.94;100.00
4586;BME280;2305;50.118;8.952;2023-05-10T04:43:34;99931.53;;;14.91;100.00
4586;BME280;2305;50.118;8.952;2023-05-10T04:46:03;99935.88;;;14.92;100.00
4586;BME280;2305;50.118;8.952;2023-05-10T04:48:32;99933.22;;;14.92;100.00
4586;BME280;2305;50.118;8.952;2023-05-10T04:51:04;99931.09;;;14.96;100.00
4586;BME280;2305;50.118;8.952;2023-05-10T04:53:33;99936.41;;;15.04;100.00
4586;BME280;2305;50.118;8.952;2023-05-10T04:56:02;99941.53;;;15.05;100.00
4586;BME280;2305;50.118;8.952;2023-05-10T04:58:32;99943.88;;;15.08;100.00
4586;BME280;2305;50.118;8.952;2023-05-10T05:01:05;99942.88;;;15.17;100.00
4586;BME280;2305;50.118;8.952;2023-05-10T05:03:34;99945.06;;;15.22;100.00
4586;BME280;2305;50.118;8.952;2023-05-10T05:06:03;99941.59;;;15.29;100.00
4586;BME280;2305;50.118;8.952;2023-05-10T05:08:33;99945.78;;;15.32;100.00
4586;BME280;2305;50.118;8.952;2023-05-10T05:11:01;99950.84;;;15.17;100.00
4586;BME280;2305;50.118;8.952;2023-05-10T05:13:29;99948.38;;;15.24;100.00
4586;BME280;2305;50.118;8.952;2023-05-10T05:16:01;99959.81;;;15.16;100.00
4586;BME280;2305;50.118;8.952;2023-05-10T05:18:29;99956.81;;;15.19;100.00
4586;BME280;2305;50.118;8.952;2023-05-10T05:20:58;99953.00;;;15.22;100.00
4586;BME280;2305;50.118;8.952;2023-05-10T05:23:26;99960.97;;;15.14;100.00
4586;BME280;2305;50.118;8.952;2023-05-10T05:25:55;99968.44;;;15.18;100.00
4586;BME280;2305;50.118;8.952;2023-05-10T05:28:24;99971.41;;;15.15;100.00
4586;BME280;2305;50.118;8.952;2023-05-10T05:30:55;99968.56;;;15.09;100.00
4586;BME280;2305;50.118;8.952;2023-05-10T05:33:24;99970.59;;;15.15;100.00
4586;BME280;2305;50.118;8.952;2023-05-10T05:35:52;99970.28;;;15.26;100.00
4586;BME280;2305;50.118;8.952;2023-05-10T05:38:20;99974.94;;;15.24;100.00
4586;BME280;2305;50.118;8.952;2023-05-10T05:40:48;99973.75;;;15.26;100.00
4586;BME280;2305;50.118;8.952;2023-05-10T05:43:17;99983.06;;;15.30;100.00
4586;BME280;2305;50.118;8.952;2023-05-10T05:45:48;99976.66;;;15.41;100.00
4586;BME280;2305;50.118;8.952;2023-05-10T05:48:17;99972.63;;;15.37;100.00
4586;BME280;2305;50.118;8.952;2023-05-10T05:50:47;99974.66;;;15.43;100.00
4586;BME280;2305;50.118;8.952;2023-05-10T05:53:16;99966.19;;;15.47;100.00
4586;BME280;2305;50.118;8.952;2023-05-10T05:55:56;99976.50;;;15.50;100.00
4586;BME280;2305;50.118;8.952;2023-05-10T05:58:26;99978.78;;;15.37;100.00
4586;BME280;2305;50.118;8.952;2023-05-10T06:01:02;99980.28;;;15.40;100.00
4586;BME280;2305;50.118;8.952;2023-05-10T06:03:57;99982.44;;;15.36;100.00
4586;BME280;2305;50.118;8.952;2023-05-10T06:06:34;99984.44;;;15.34;100.00
4586;BME280;2305;50.118;8.952;2023-05-10T06:09:02;99986.75;;;15.37;100.00
4586;BME280;2305;50.118;8.952;2023-05-10T06:11:30;99991.22;;;15.45;100.00
4586;BME280;2305;50.118;8.952;2023-05-10T06:14:02;99984.25;;;15.36;100.00
4586;BME280;2305;50.118;8.952;2023-05-10T06:16:31;100009.16;;;15.43;100.00
4586;BME280;2305;50.118;8.952;2023-05-10T06:19:00;100001.84;;;15.45;100.00
4586;BME280;2305;50.118;8.952;2023-05-10T06:21:31;99998.53;;;15.43;100.00
4586;BME280;2305;50.118;8.952;2023-05-10T06:24:05;100001.38;;;15.49;100.00
4586;BME280;2305;50.118;8.952;2023-05-10T06:26:35;100008.66;;;15.47;100.00
4586;BME280;2305;50.118;8.952;2023-05-10T06:29:04;100007.22;;;15.61;100.00
4586;BME280;2305;50.118;8.952;2023-05-10T06:31:37;100006.22;;;15.54;100.00
4586;BME280;2305;50.118;8.952;2023-05-10T06:34:07;100012.19;;;15.56;100.00
4586;BME280;2305;50.118;8.952;2023-05-10T06:36:40;100010.53;;;15.63;100.00
4586;BME280;2305;50.118;8.952;2023-05-10T06:39:15;100020.16;;;15.72;100.00
4586;BME280;2305;50.118;8.952;2023-05-10T06:41:44;100021.81;;;15.65;100.00
4586;BME280;2305;50.118;8.952;2023-05-10T06:44:12;100025.16;;;15.67;100.00
4586;BME280;2305;50.118;8.952;2023-05-10T06:46:40;100017.84;;;15.77;100.00
4586;BME280;2305;50.118;8.952;2023-05-10T06:49:09;100013.03;;;15.72;100.00
4586;BME280;2305;50.118;8.952;2023-05-10T06:51:38;100020.34;;;15.86;100.00
4586;BME280;2305;50.118;8.952;2023-05-10T06:54:07;100022.00;;;15.95;100.00
4586;BME280;2305;50.118;8.952;2023-05-10T06:56:36;100022.00;;;16.03;100.00
4586;BME280;2305;50.118;8.952;2023-05-10T06:59:04;100018.50;;;16.11;100.00
4586;BME280;2305;50.118;8.952;2023-05-10T07:01:33;100021.97;;;16.27;100.00
4586;BME280;2305;50.118;8.952;2023-05-10T07:04:01;100012.84;;;16.46;100.00
4586;BME280;2305;50.118;8.952;2023-05-10T07:06:30;100005.31;;;16.57;100.00
4586;BME280;2305;50.118;8.952;2023-05-10T07:08:59;100025.63;;;16.50;100.00
4586;BME280;2305;50.118;8.952;2023-05-10T07:11:31;100019.13;;;16.53;100.00
4586;BME280;2305;50.118;8.952;2023-05-10T07:14:02;100028.63;;;16.39;100.00
4586;BME280;2305;50.118;8.952;2023-05-10T07:16:30;100024.13;;;16.48;100.00
4586;BME280;2305;50.118;8.952;2023-05-10T07:19:00;100025.63;;;16.50;100.00
4586;BME280;2305;50.118;8.952;2023-05-10T07:21:28;100019.63;;;16.56;100.00
4586;BME280;2305;50.118;8.952;2023-05-10T07:23:57;100032.44;;;16.29;100.00
4586;BME280;2305;50.118;8.952;2023-05-10T07:26:28;100049.22;;;16.29;100.00
4586;BME280;2305;50.118;8.952;2023-05-10T07:28:56;100032.94;;;16.48;100.00
4586;BME280;2305;50.118;8.952;2023-05-10T07:31:25;100027.41;;;16.58;100.00
4586;BME280;2305;50.118;8.952;2023-05-10T07:33:56;100043.84;;;16.69;100.00
4586;BME280;2305;50.118;8.952;2023-05-10T07:36:32;100036.53;;;16.71;100.00
4586;BME280;2305;50.118;8.952;2023-05-10T07:39:01;100042.19;;;16.68;100.00
4586;BME280;2305;50.118;8.952;2023-05-10T07:41:29;100038.16;;;16.80;100.00
4586;BME280;2305;50.118;8.952;2023-05-10T07:43:58;100041.16;;;16.85;100.00
4586;BME280;2305;50.118;8.952;2023-05-10T07:46:28;100040.47;;;16.91;100.00
4586;BME280;2305;50.118;8.952;2023-05-10T07:48:56;100044.91;;;16.99;100.00
4586;BME280;2305;50.118;8.952;2023-05-10T07:51:26;100043.91;;;17.00;100.00
4586;BME280;2305;50.118;8.952;2023-05-10T07:53:57;100047.59;;;16.99;100.00
4586;BME280;2305;50.118;8.952;2023-05-10T07:56:27;100048.25;;;16.93;100.00
4586;BME280;2305;50.118;8.952;2023-05-10T07:58:56;100050.28;;;16.91;100.00
4586;BME280;2305;50.118;8.952;2023-05-10T08:01:30;100061.28;;;16.88;100.00
4586;BME280;2305;50.118;8.952;2023-05-10T08:03:59;100057.09;;;16.93;100.00
4586;BME280;2305;50.118;8.952;2023-05-10T08:06:29;100063.94;;;16.88;100.00
4586;BME280;2305;50.118;8.952;2023-05-10T08:09:00;100054.41;;;17.01;100.00
4586;BME280;2305;50.118;8.952;2023-05-10T08:11:30;100054.88;;;17.05;100.00
4586;BME280;2305;50.118;8.952;2023-05-10T08:14:00;100056.50;;;17.14;100.00
4586;BME280;2305;50.118;8.952;2023-05-10T08:16:32;100056.28;;;17.23;100.00
4586;BME280;2305;50.118;8.952;2023-05-10T08:19:01;100057.09;;;17.40;100.00
4586;BME280;2305;50.118;8.952;2023-05-10T08:21:29;100054.97;;;17.58;100.00
4586;BME280;2305;50.118;8.952;2023-05-10T08:24:00;100056.41;;;17.68;100.00
4586;BME280;2305;50.118;8.952;2023-05-10T08:26:30;100065.00;;;17.78;100.00
4586;BME280;2305;50.118;8.952;2023-05-10T08:28:58;100064.84;;;17.80;100.00
4586;BME280;2305;50.118;8.952;2023-05-10T08:31:27;100065.88;;;17.71;100.00
4586;BME280;2305;50.118;8.952;2023-05-10T08:33:59;100060.84;;;17.76;100.00
4586;BME280;2305;50.118;8.952;2023-05-10T08:36:28;100070.44;;;17.85;100.00
4586;BME280;2305;50.118;8.952;2023-05-10T08:38:56;100077.19;;;17.95;100.00
4586;BME280;2305;50.118;8.952;2023-05-10T08:41:25;100074.13;;;17.84;100.00
4586;BME280;2305;50.118;8.952;2023-05-10T08:43:58;100075.00;;;17.99;100.00
4586;BME280;2305;50.118;8.952;2023-05-10T08:46:33;100077.50;;;18.23;100.00
4586;BME280;2305;50.118;8.952;2023-05-10T08:49:06;100077.69;;;17.99;100.00
4586;BME280;2305;50.118;8.952;2023-05-10T08:51:36;100078.28;;;18.09;100.00
4586;BME280;2305;50.118;8.952;2023-05-10T08:54:10;100076.13;;;18.27;100.00
4586;BME280;2305;50.118;8.952;2023-05-10T08:56:41;100080.44;;;18.28;100.00
4586;BME280;2305;50.118;8.952;2023-05-10T08:59:12;100079.97;;;18.24;100.00
4586;BME280;2305;50.118;8.952;2023-05-10T09:01:42;100076.91;;;18.35;100.00
4586;BME280;2305;50.118;8.952;2023-05-10T09:04:16;100077.13;;;18.48;100.00
4586;BME280;2305;50.118;8.952;2023-05-10T09:06:44;100086.06;;;18.55;100.00
4586;BME280;2305;50.118;8.952;2023-05-10T09:09:12;100083.59;;;18.68;100.00
4586;BME280;2305;50.118;8.952;2023-05-10T09:11:44;100079.56;;;18.87;100.00
4586;BME280;2305;50.118;8.952;2023-05-10T09:14:13;100082.78;;;18.96;100.00
4586;BME280;2305;50.118;8.952;2023-05-10T09:16:44;100083.31;;;18.77;100.00
4586;BME280;2305;50.118;8.952;2023-05-10T09:19:12;100083.81;;;18.95;100.00
4586;BME280;2305;50.118;8.952;2023-05-10T09:21:43;100079.75;;;19.14;100.00
4586;BME280;2305;50.118;8.952;2023-05-10T09:24:12;100089.78;;;19.26;100.00
4586;BME280;2305;50.118;8.952;2023-05-10T09:26:46;100081.16;;;19.24;100.00
4586;BME280;2305;50.118;8.952;2023-05-10T09:29:16;100080.38;;;19.45;100.00
4586;BME280;2305;50.118;8.952;2023-05-10T09:31:45;100085.06;;;19.57;100.00
4586;BME280;2305;50.118;8.952;2023-05-10T09:34:18;100082.97;;;19.74;100.00
4586;BME280;2305;50.118;8.952;2023-05-10T09:36:56;100083.09;;;19.87;100.00
4586;BME280;2305;50.118;8.952;2023-05-10T09:39:33;100089.41;;;19.79;100.00
4586;BME280;2305;50.118;8.952;2023-05-10T09:42:04;100091.19;;;19.72;100.00
4586;BME280;2305;50.118;8.952;2023-05-10T09:44:34;100089.28;;;19.87;100.00
4586;BME280;2305;50.118;8.952;2023-05-10T09:47:04;100098.84;;;19.96;100.00
4586;BME280;2305;50.118;8.952;2023-05-10T09:49:34;100101.53;;;19.96;100.00
4586;BME280;2305;50.118;8.952;2023-05-10T09:52:05;100093.53;;;20.03;100.00
4586;BME280;2305;50.118;8.952;2023-05-10T09:54:34;100087.75;;;19.99;100.00
4586;BME280;2305;50.118;8.952;2023-05-10T09:57:05;100092.38;;;20.05;100.00
4586;BME280;2305;50.118;8.952;2023-05-10T09:59:42;100086.53;;;20.16;100.00
4586;BME280;2305;50.118;8.952;2023-05-10T10:02:10;100094.25;;;20.26;100.00
4586;BME280;2305;50.118;8.952;2023-05-10T10:04:40;100098.69;;;20.19;100.00
4586;BME280;2305;50.118;8.952;2023-05-10T10:07:10;100095.94;;;20.12;100.00
4586;BME280;2305;50.118;8.952;2023-05-10T10:09:40;100095.00;;;20.20;100.00
4586;BME280;2305;50.118;8.952;2023-05-10T10:12:09;100096.81;;;19.98;100.00
4586;BME280;2305;50.118;8.952;2023-05-10T10:14:38;100103.16;;;19.76;100.00
4586;BME280;2305;50.118;8.952;2023-05-10T10:17:07;100101.63;;;19.53;100.00
4586;BME280;2305;50.118;8.952;2023-05-10T10:19:38;100101.34;;;19.62;100.00
4586;BME280;2305;50.118;8.952;2023-05-10T10:22:07;100102.75;;;19.44;100.00
4586;BME280;2305;50.118;8.952;2023-05-10T10:24:41;100096.75;;;19.56;100.00
4586;BME280;2305;50.118;8.952;2023-05-10T10:27:20;100097.06;;;19.82;100.00
4586;BME280;2305;50.118;8.952;2023-05-10T10:29:59;100098.84;;;19.96;100.00
4586;BME280;2305;50.118;8.952;2023-05-10T10:35:21;100105.13;;;19.68;100.00
4586;BME280;2305;50.118;8.952;2023-05-10T10:37:50;100110.09;;;19.56;100.00
4586;BME280;2305;50.118;8.952;2023-05-10T10:40:27;100106.91;;;19.46;100.00
4586;BME280;2305;50.118;8.952;2023-05-10T10:43:21;100111.91;;;19.35;100.00
4586;BME280;2305;50.118;8.952;2023-05-10T10:46:12;100111.16;;;19.26;100.00
4586;BME280;2305;50.118;8.952;2023-05-10T10:48:43;100105.59;;;19.13;100.00
4586;BME280;2305;50.118;8.952;2023-05-10T10:51:14;100109.94;;;18.85;100.00
4586;BME280;2305;50.118;8.952;2023-05-10T10:53:47;100111.69;;;18.93;100.00
4586;BME280;2305;50.118;8.952;2023-05-10T10:56:22;100119.72;;;19.07;100.00
4586;BME280;2305;50.118;8.952;2023-05-10T10:58:52;100122.28;;;19.01;100.00
4586;BME280;2305;50.118;8.952;2023-05-10T11:01:20;100125.97;;;19.00;100.00
4586;BME280;2305;50.118;8.952;2023-05-10T11:04:16;100129.84;;;19.12;100.00
4586;BME280;2305;50.118;8.952;2023-05-10T11:06:48;100127.44;;;19.17;100.00
4586;BME280;2305;50.118;8.952;2023-05-10T11:09:17;100124.53;;;19.26;100.00
4586;BME280;2305;50.118;8.952;2023-05-10T11:11:53;100121.66;;;19.42;100.00
4586;BME280;2305;50.118;8.952;2023-05-10T11:14:22;100135.69;;;19.44;100.00
4586;BME280;2305;50.118;8.952;2023-05-10T11:16:51;100123.22;;;19.51;100.00
4586;BME280;2305;50.118;8.952;2023-05-10T11:19:19;100130.69;;;19.56;100.00
4586;BME280;2305;50.118;8.952;2023-05-10T11:21:50;100132.00;;;19.45;100.00
4586;BME280;2305;50.118;8.952;2023-05-10T11:24:27;100129.66;;;19.42;100.00
4586;BME280;2305;50.118;8.952;2023-05-10T11:26:59;100133.47;;;19.33;100.00
4586;BME280;2305;50.118;8.952;2023-05-10T11:29:28;100130.03;;;19.25;100.00
4586;BME280;2305;50.118;8.952;2023-05-10T11:32:00;100136.88;;;19.27;100.00
4586;BME280;2305;50.118;8.952;2023-05-10T11:34:31;100143.78;;;19.22;100.00
4586;BME280;2305;50.118;8.952;2023-05-10T11:37:03;100143.38;;;19.10;100.00
4586;BME280;2305;50.118;8.952;2023-05-10T11:39:31;100137.13;;;19.03;100.00
4586;BME280;2305;50.118;8.952;2023-05-10T11:42:02;100136.47;;;19.16;100.00
4586;BME280;2305;50.118;8.952;2023-05-10T11:44:30;100145.81;;;19.20;100.00
4586;BME280;2305;50.118;8.952;2023-05-10T11:46:59;100137.59;;;19.36;100.00
4586;BME280;2305;50.118;8.952;2023-05-10T11:49:28;100149.13;;;19.07;100.00
4586;BME280;2305;50.118;8.952;2023-05-10T11:52:03;100142.28;;;19.05;100.00
4586;BME280;2305;50.118;8.952;2023-05-10T11:54:32;100153.38;;;19.31;100.00
4586;BME280;2305;50.118;8.952;2023-05-10T11:57:05;100152.50;;;19.16;100.00
4586;BME280;2305;50.118;8.952;2023-05-10T11:59:36;100148.81;;;19.17;100.00
4586;BME280;2305;50.118;8.952;2023-05-10T12:02:08;100155.31;;;19.51;100.00
4586;BME280;2305;50.118;8.952;2023-05-10T12:04:37;100147.63;;;19.48;100.00
4586;BME280;2305;50.118;8.952;2023-05-10T12:07:06;100159.81;;;19.51;100.00
4586;BME280;2305;50.118;8.952;2023-05-10T12:09:35;100167.38;;;19.47;100.00
4586;BME280;2305;50.118;8.952;2023-05-10T12:12:15;100169.22;;;19.32;100.00
4586;BME280;2305;50.118;8.952;2023-05-10T12:14:48;100172.13;;;19.08;100.00
4586;BME280;2305;50.118;8.952;2023-05-10T12:17:18;100172.81;;;18.74;100.00
4586;BME280;2305;50.118;8.952;2023-05-10T12:19:51;100168.50;;;18.50;100.00
4586;BME280;2305;50.118;8.952;2023-05-10T12:22:21;100171.59;;;18.39;100.00
4586;BME280;2305;50.118;8.952;2023-05-10T12:24:50;100167.25;;;18.38;100.00
4586;BME280;2305;50.118;8.952;2023-05-10T12:27:20;100172.94;;;18.58;100.00
4586;BME280;2305;50.118;8.952;2023-05-10T12:29:48;100175.41;;;18.82;100.00
4586;BME280;2305;50.118;8.952;2023-05-10T12:32:16;100175.56;;;18.80;100.00
4586;BME280;2305;50.118;8.952;2023-05-10T12:34:46;100171.13;;;19.09;100.00
4586;BME280;2305;50.118;8.952;2023-05-10T12:37:16;100168.75;;;19.29;100.00
4586;BME280;2305;50.118;8.952;2023-05-10T12:39:45;100164.41;;;19.57;100.00
4586;BME280;2305;50.118;8.952;2023-05-10T12:42:20;100166.19;;;19.85;100.00
4586;BME280;2305;50.118;8.952;2023-05-10T12:44:48;100169.38;;;19.74;100.00
4586;BME280;2305;50.118;8.952;2023-05-10T12:47:16;100177.16;;;19.90;100.00
4586;BME280;2305;50.118;8.952;2023-05-10T12:49:48;100167.56;;;20.31;100.00
4586;BME280;2305;50.118;8.952;2023-05-10T12:52:17;100168.72;;;20.64;100.00
4586;BME280;2305;50.118;8.952;2023-05-10T12:54:46;100162.66;;;20.83;100.00
4586;BME280;2305;50.118;8.952;2023-05-10T12:57:15;100167.63;;;21.07;100.00
4586;BME280;2305;50.118;8.952;2023-05-10T12:59:51;100170.72;;;20.83;100.00
4586;BME280;2305;50.118;8.952;2023-05-10T13:02:19;100179.66;;;20.90;100.00
4586;BME280;2305;50.118;8.952;2023-05-10T13:04:47;100169.84;;;21.31;100.00
4586;BME280;2305;50.118;8.952;2023-05-10T13:07:17;100160.50;;;21.61;100.00
4586;BME280;2305;50.118;8.952;2023-05-10T13:09:47;100160.41;;;21.76;100.00
4586;BME280;2305;50.118;8.952;2023-05-10T13:12:15;100154.75;;;21.64;100.00
4586;BME280;2305;50.118;8.952;2023-05-10T13:14:43;100159.38;;;21.77;100.00
4586;BME280;2305;50.118;8.952;2023-05-10T13:17:13;100158.81;;;21.94;100.00
4586;BME280;2305;50.118;8.952;2023-05-10T13:19:41;100158.63;;;22.09;100.00
4586;BME280;2305;50.118;8.952;2023-05-10T13:22:10;100155.38;;;22.13;100.00
4586;BME280;2305;50.118;8.952;2023-05-10T13:24:38;100154.16;;;22.22;100.00
4586;BME280;2305;50.118;8.952;2023-05-10T13:27:07;100153.94;;;22.30;100.00
4586;BME280;2305;50.118;8.952;2023-05-10T13:29:37;100147.75;;;22.36;100.00